sensor_id;sensor_type;location;lat;lon;timestamp;temperature;humidity
5924;DHT22;2987;50.884;14.818;2023-06-05T00:01:46;8.70;99.90
5924;DHT22;2987;50.884;14.818;2023-06-05T00:04:12;8.30;99.90
5924;DHT22;2987;50.884;14.818;2023-06-05T00:06:38;8.30;99.90
5924;DHT22;2987;50.884;14.818;2023-06-05T00:09:04;8.30;99.90
5924;DHT22;2987;50.884;14.818;2023-06-05T00:11:30;8.40;99.90
5924;DHT22;2987;50.884;14.818;2023-06-05T00:13:56;8.30;99.90
5924;DHT22;2987;50.884;14.818;2023-06-05T00:16:23;8.40;99.90
5924;DHT22;2987;50.884;14.818;2023-06-05T00:18:49;8.40;99.90
5924;DHT22;2987;50.884;14.818;2023-06-05T00:23:42;8.30;99.90
5924;DHT22;2987;50.884;14.818;2023-06-05T00:26:09;8.30;99.90
5924;DHT22;2987;50.884;14.818;2023-06-05T00:28:34;8.00;99.90
5924;DHT22;2987;50.884;14.818;2023-06-05T00:31:01;8.00;99.90
5924;DHT22;2987;50.884;14.818;2023-06-05T00:33:27;8.40;99.90
5924;DHT22;2987;50.884;14.818;2023-06-05T00:35:56;7.90;99.90
5924;DHT22;2987;50.884;14.818;2023-06-05T00:38:24;7.90;99.90
5924;DHT22;2987;50.884;14.818;2023-06-05T00:40:51;8.00;99.90
5924;DHT22;2987;50.884;14.818;2023-06-05T00:43:18;8.10;99.90
5924;DHT22;2987;50.884;14.818;2023-06-05T00:45:43;7.60;99.90
5924;DHT22;2987;50.884;14.818;2023-06-05T00:48:10;7.90;99.90
5924;DHT22;2987;50.884;14.818;2023-06-05T00:50:37;8.00;99.90
5924;DHT22;2987;50.884;14.818;2023-06-05T00:53:04;8.00;99.90
5924;DHT22;2987;50.884;14.818;2023-06-05T00:55:32;7.90;99.90
5924;DHT22;2987;50.884;14.818;2023-06-05T00:58:00;8.00;99.90
5924;DHT22;2987;50.884;14.818;2023-06-05T01:00:27;7.90;99.90
5924;DHT22;2987;50.884;14.818;2023-06-05T01:02:53;7.70;99.90
5924;DHT22;2987;50.884;14.818;2023-06-05T01:05:22;7.70;99.90
5924;DHT22;2987;50.884;14.818;2023-06-05T01:07:50;7.50;99.90
5924;DHT22;2987;50.884;14.818;2023-06-05T01:10:17;7.70;99.90
5924;DHT22;2987;50.884;14.818;2023-06-05T01:13:01;7.60;99.90
5924;DHT22;2987;50.884;14.818;2023-06-05T01:15:30;7.40;99.90
5924;DHT22;2987;50.884;14.818;2023-06-05T01:17:58;7.60;99.90
5924;DHT22;2987;50.884;14.818;2023-06-05T01:20:34;7.60;99.90
5924;DHT22;2987;50.884;14.818;2023-06-05T01:23:03;7.60;99.90
5924;DHT22;2987;50.884;14.818;2023-06-05T01:25:29;7.70;99.90
5924;DHT22;2987;50.884;14.818;2023-06-05T01:28:08;7.30;99.90
5924;DHT22;2987;50.884;14.818;2023-06-05T01:30:52;7.40;99.90
5924;DHT22;2987;50.884;14.818;2023-06-05T01:33:27;7.30;99.90
5924;DHT22;2987;50.884;14.818;2023-06-05T01:35:54;7.10;99.90
5924;DHT22;2987;50.884;14.818;2023-06-05T01:38:22;7.20;99.90
5924;DHT22;2987;50.884;14.818;2023-06-05T01:40:50;7.20;99.90
5924;DHT22;2987;50.884;14.818;2023-06-05T01:43:17;7.20;99.90
5924;DHT22;2987;50.884;14.818;2023-06-05T01:45:44;7.40;99.90
5924;DHT22;2987;50.884;14.818;2023-06-05T01:48:10;7.20;99.90
5924;DHT22;2987;50.884;14.818;2023-06-05T01:50:37;7.00;99.90
5924;DHT22;2987;50.884;14.818;2023-06-05T01:53:04;7.10;99.90
5924;DHT22;2987;50.884;14.818;2023-06-05T01:55:31;7.00;99.90
5924;DHT22;2987;50.884;14.818;2023-06-05T01:57:58;7.10;99.90
5924;DHT22;2987;50.884;14.818;2023-06-05T02:00:24;7.20;99.90
5924;DHT22;2987;50.884;14.818;2023-06-05T02:02:50;7.40;99.90
5924;DHT22;2987;50.884;14.818;2023-06-05T02:05:17;7.30;99.90
5924;DHT22;2987;50.884;14.818;2023-06-05T02:07:47;7.30;99.90
5924;DHT22;2987;50.884;14.818;2023-06-05T02:10:15;7.00;99.90
5924;DHT22;2987;50.884;14.818;2023-06-05T02:12:44;7.40;99.90
5924;DHT22;2987;50.884;14.818;2023-06-05T02:15:11;7.00;99.90
5924;DHT22;2987;50.884;14.818;2023-06-05T02:17:39;7.40;99.90
5924;DHT22;2987;50.884;14.818;2023-06-05T02:20:12;7.10;99.90
5924;DHT22;2987;50.884;14.818;2023-06-05T02:22:39;7.10;99.90
5924;DHT22;2987;50.884;14.818;2023-06-05T02:25:06;7.00;99.90
5924;DHT22;2987;50.884;14.818;2023-06-05T02:27:33;7.30;99.90
5924;DHT22;2987;50.884;14.818;2023-06-05T02:29:59;6.80;99.90
5924;DHT22;2987;50.884;14.818;2023-06-05T02:32:25;7.00;99.90
5924;DHT22;2987;50.884;14.818;2023-06-05T02:34:52;6.90;99.90
5924;DHT22;2987;50.884;14.818;2023-06-05T02:37:19;6.70;99.90
5924;DHT22;2987;50.884;14.818;2023-06-05T02:39:49;6.70;99.90
5924;DHT22;2987;50.884;14.818;2023-06-05T02:42:15;6.70;99.90
5924;DHT22;2987;50.884;14.818;2023-06-05T02:44:42;6.70;99.90
5924;DHT22;2987;50.884;14.818;2023-06-05T02:47:09;6.70;99.90
5924;DHT22;2987;50.884;14.818;2023-06-05T02:49:35;6.70;99.90
5924;DHT22;2987;50.884;14.818;2023-06-05T02:52:03;6.70;99.90
5924;DHT22;2987;50.884;14.818;2023-06-05T02:54:30;6.80;99.90
5924;DHT22;2987;50.884;14.818;2023-06-05T02:56:59;6.70;99.90
5924;DHT22;2987;50.884;14.818;2023-06-05T02:59:28;6.70;99.90
5924;DHT22;2987;50.884;14.818;2023-06-05T03:01:59;6.60;99.90
5924;DHT22;2987;50.884;14.818;2023-06-05T03:04:26;6.70;99.90
5924;DHT22;2987;50.884;14.818;2023-06-05T03:06:55;7.00;99.90
5924;DHT22;2987;50.884;14.818;2023-06-05T03:09:24;6.70;99.90
5924;DHT22;2987;50.884;14.818;2023-06-05T03:11:52;6.70;99.90
5924;DHT22;2987;50.884;14.818;2023-06-05T03:14:20;6.90;99.90
5924;DHT22;2987;50.884;14.818;2023-06-05T03:16:46;6.80;99.90
5924;DHT22;2987;50.884;14.818;2023-06-05T03:19:14;7.20;99.90
5924;DHT22;2987;50.884;14.818;2023-06-05T03:21:42;6.80;99.90
5924;DHT22;2987;50.884;14.818;2023-06-05T03:24:12;7.10;99.90
5924;DHT22;2987;50.884;14.818;2023-06-05T03:26:41;7.00;99.90
5924;DHT22;2987;50.884;14.818;2023-06-05T03:29:10;7.20;99.90
5924;DHT22;2987;50.884;14.818;2023-06-05T03:31:36;7.20;99.90
5924;DHT22;2987;50.884;14.818;2023-06-05T03:34:02;7.30;99.90
5924;DHT22;2987;50.884;14.818;2023-06-05T03:36:31;7.10;99.90
5924;DHT22;2987;50.884;14.818;2023-06-05T03:39:03;7.60;99.90
5924;DHT22;2987;50.884;14.818;2023-06-05T03:41:29;7.30;99.90
5924;DHT22;2987;50.884;14.818;2023-06-05T03:43:56;7.40;99.90
5924;DHT22;2987;50.884;14.818;2023-06-05T03:46:23;7.30;99.90
5924;DHT22;2987;50.884;14.818;2023-06-05T03:48:51;7.60;99.90
5924;DHT22;2987;50.884;14.818;2023-06-05T03:51:26;8.00;99.90
5924;DHT22;2987;50.884;14.818;2023-06-05T03:53:57;7.80;99.90
5924;DHT22;2987;50.884;14.818;2023-06-05T03:56:25;8.00;99.90
5924;DHT22;2987;50.884;14.818;2023-06-05T03:58:55;8.30;99.90
5924;DHT22;2987;50.884;14.818;2023-06-05T04:01:22;8.10;99.90
5924;DHT22;2987;50.884;14.818;2023-06-05T04:03:48;8.40;99.90
5924;DHT22;2987;50.884;14.818;2023-06-05T04:06:14;8.40;99.90
5924;DHT22;2987;50.884;14.818;2023-06-05T04:08:40;8.60;99.90
5924;DHT22;2987;50.884;14.818;2023-06-05T04:11:06;8.50;99.90
5924;DHT22;2987;50.884;14.818;2023-06-05T04:13:32;8.60;99.90
5924;DHT22;2987;50.884;14.818;2023-06-05T04:16:00;8.60;99.90
5924;DHT22;2987;50.884;14.818;2023-06-05T04:18:28;8.80;99.90
5924;DHT22;2987;50.884;14.818;2023-06-05T04:20:54;8.80;99.90
5924;DHT22;2987;50.884;14.818;2023-06-05T04:23:21;8.70;99.90
5924;DHT22;2987;50.884;14.818;2023-06-05T04:25:48;8.90;99.90
5924;DHT22;2987;50.884;14.818;2023-06-05T04:28:15;9.00;99.90
5924;DHT22;2987;50.884;14.818;2023-06-05T04:30:41;9.00;99.90
5924;DHT22;2987;50.884;14.818;2023-06-05T04:33:07;9.20;99.90
5924;DHT22;2987;50.884;14.818;2023-06-05T04:35:36;9.10;99.90
5924;DHT22;2987;50.884;14.818;2023-06-05T04:38:02;9.20;99.90
5924;DHT22;2987;50.884;14.818;2023-06-05T04:40:30;9.20;99.90
5924;DHT22;2987;50.884;14.818;2023-06-05T04:42:57;9.20;99.90
5924;DHT22;2987;50.884;14.818;2023-06-05T04:45:25;9.10;99.90
5924;DHT22;2987;50.884;14.818;2023-06-05T04:47:51;9.40;99.90
5924;DHT22;2987;50.884;14.818;2023-06-05T04:50:26;9.40;99.90
5924;DHT22;2987;50.884;14.818;2023-06-05T04:53:00;9.60;99.90
5924;DHT22;2987;50.884;14.818;2023-06-05T04:55:26;9.80;99.90
5924;DHT22;2987;50.884;14.818;2023-06-05T04:57:54;9.90;99.90
5924;DHT22;2987;50.884;14.818;2023-06-05T05:00:27;10.10;99.90
5924;DHT22;2987;50.884;14.818;2023-06-05T05:02:53;10.30;99.90
5924;DHT22;2987;50.884;14.818;2023-06-05T05:05:20;10.40;99.90
5924;DHT22;2987;50.884;14.818;2023-06-05T05:07:48;10.80;99.90
5924;DHT22;2987;50.884;14.818;2023-06-05T05:10:15;10.90;99.90
5924;DHT22;2987;50.884;14.818;2023-06-05T05:12:41;11.00;99.90
5924;DHT22;2987;50.884;14.818;2023-06-05T05:15:08;11.10;99.90
5924;DHT22;2987;50.884;14.818;2023-06-05T05:17:34;11.30;99.90
5924;DHT22;2987;50.884;14.818;2023-06-05T05:20:01;11.30;99.90
5924;DHT22;2987;50.884;14.818;2023-06-05T05:22:28;11.40;99.90
5924;DHT22;2987;50.884;14.818;2023-06-05T05:24:55;11.50;99.90
5924;DHT22;2987;50.884;14.818;2023-06-05T05:27:22;11.60;99.90
5924;DHT22;2987;50.884;14.818;2023-06-05T05:29:50;11.60;99.90
5924;DHT22;2987;50.884;14.818;2023-06-05T05:32:17;11.70;99.90
5924;DHT22;2987;50.884;14.818;2023-06-05T05:34:43;11.70;99.90
5924;DHT22;2987;50.884;14.818;2023-06-05T05:37:09;11.80;99.90
5924;DHT22;2987;50.884;14.818;2023-06-05T05:39:36;12.00;99.90
5924;DHT22;2987;50.884;14.818;2023-06-05T05:42:02;12.20;99.90
5924;DHT22;2987;50.884;14.818;2023-06-05T05:44:28;12.40;99.90
5924;DHT22;2987;50.884;14.818;2023-06-05T05:46:55;12.50;99.90
5924;DHT22;2987;50.884;14.818;2023-06-05T05:49:21;12.40;99.90
5924;DHT22;2987;50.884;14.818;2023-06-05T05:51:47;12.50;99.90
5924;DHT22;2987;50.884;14.818;2023-06-05T05:54:13;12.50;99.90
5924;DHT22;2987;50.884;14.818;2023-06-05T05:56:39;12.60;99.90
5924;DHT22;2987;50.884;14.818;2023-06-05T05:59:05;12.70;99.90
5924;DHT22;2987;50.884;14.818;2023-06-05T06:01:31;12.80;99.90
5924;DHT22;2987;50.884;14.818;2023-06-05T06:03:58;12.90;99.90
5924;DHT22;2987;50.884;14.818;2023-06-05T06:06:24;13.00;99.90
5924;DHT22;2987;50.884;14.818;2023-06-05T06:08:50;13.10;99.90
5924;DHT22;2987;50.884;14.818;2023-06-05T06:11:16;13.20;99.90
5924;DHT22;2987;50.884;14.818;2023-06-05T06:13:43;13.30;99.90
5924;DHT22;2987;50.884;14.818;2023-06-05T06:16:09;13.40;99.90
5924;DHT22;2987;50.884;14.818;2023-06-05T06:18:35;13.60;99.90
5924;DHT22;2987;50.884;14.818;2023-06-05T06:21:02;13.90;99.90
5924;DHT22;2987;50.884;14.818;2023-06-05T06:23:29;14.20;99.90
5924;DHT22;2987;50.884;14.818;2023-06-05T06:25:55;14.40;99.90
5924;DHT22;2987;50.884;14.818;2023-06-05T06:28:22;14.70;99.90
5924;DHT22;2987;50.884;14.818;2023-06-05T06:30:48;15.10;99.90
5924;DHT22;2987;50.884;14.818;2023-06-05T06:33:14;15.40;99.90
5924;DHT22;2987;50.884;14.818;2023-06-05T06:35:40;15.70;99.90
5924;DHT22;2987;50.884;14.818;2023-06-05T06:38:07;16.20;99.90
5924;DHT22;2987;50.884;14.818;2023-06-05T06:40:33;16.80;99.90
5924;DHT22;2987;50.884;14.818;2023-06-05T06:42:59;17.30;99.90
5924;DHT22;2987;50.884;14.818;2023-06-05T06:45:34;17.70;99.90
5924;DHT22;2987;50.884;14.818;2023-06-05T06:48:00;18.20;99.90
5924;DHT22;2987;50.884;14.818;2023-06-05T06:50:26;18.60;99.90
5924;DHT22;2987;50.884;14.818;2023-06-05T06:52:52;18.90;99.90
5924;DHT22;2987;50.884;14.818;2023-06-05T06:55:19;19.40;99.90
5924;DHT22;2987;50.884;14.818;2023-06-05T06:57:45;19.80;99.90
5924;DHT22;2987;50.884;14.818;2023-06-05T07:00:12;20.30;99.90
5924;DHT22;2987;50.884;14.818;2023-06-05T07:02:40;20.50;99.90
5924;DHT22;2987;50.884;14.818;2023-06-05T07:05:06;20.70;99.90
5924;DHT22;2987;50.884;14.818;2023-06-05T07:07:32;20.90;99.90
5924;DHT22;2987;50.884;14.818;2023-06-05T07:09:59;21.00;99.90
5924;DHT22;2987;50.884;14.818;2023-06-05T07:12:25;21.30;99.90
5924;DHT22;2987;50.884;14.818;2023-06-05T07:14:51;21.40;99.90
5924;DHT22;2987;50.884;14.818;2023-06-05T07:17:17;21.30;99.90
5924;DHT22;2987;50.884;14.818;2023-06-05T07:19:43;21.50;99.90
5924;DHT22;2987;50.884;14.818;2023-06-05T07:22:09;21.50;99.90
5924;DHT22;2987;50.884;14.818;2023-06-05T07:24:36;21.40;99.90
5924;DHT22;2987;50.884;14.818;2023-06-05T07:27:04;21.60;99.90
5924;DHT22;2987;50.884;14.818;2023-06-05T07:31:58;22.00;99.70
5924;DHT22;2987;50.884;14.818;2023-06-05T07:34:25;22.20;99.00
5924;DHT22;2987;50.884;14.818;2023-06-05T07:36:53;22.20;98.80
5924;DHT22;2987;50.884;14.818;2023-06-05T07:39:20;22.50;99.90
5924;DHT22;2987;50.884;14.818;2023-06-05T07:41:46;22.80;99.90
5924;DHT22;2987;50.884;14.818;2023-06-05T07:44:15;23.10;99.20
5924;DHT22;2987;50.884;14.818;2023-06-05T07:46:42;23.10;97.90
5924;DHT22;2987;50.884;14.818;2023-06-05T07:49:08;22.90;99.50
5924;DHT22;2987;50.884;14.818;2023-06-05T07:51:35;23.10;98.00
5924;DHT22;2987;50.884;14.818;2023-06-05T07:54:03;22.80;97.80
5924;DHT22;2987;50.884;14.818;2023-06-05T07:56:29;23.10;98.90
5924;DHT22;2987;50.884;14.818;2023-06-05T07:58:57;23.40;98.60
5924;DHT22;2987;50.884;14.818;2023-06-05T08:01:23;23.50;97.60
5924;DHT22;2987;50.884;14.818;2023-06-05T08:03:49;23.80;99.30
5924;DHT22;2987;50.884;14.818;2023-06-05T08:06:15;23.90;99.00
5924;DHT22;2987;50.884;14.818;2023-06-05T08:08:42;24.20;99.90
5924;DHT22;2987;50.884;14.818;2023-06-05T08:11:09;24.60;96.70
5924;DHT22;2987;50.884;14.818;2023-06-05T08:13:37;24.90;96.20
5924;DHT22;2987;50.884;14.818;2023-06-05T08:16:05;24.80;94.40
5924;DHT22;2987;50.884;14.818;2023-06-05T08:18:31;24.80;97.30
5924;DHT22;2987;50.884;14.818;2023-06-05T08:20:57;24.80;96.90
5924;DHT22;2987;50.884;14.818;2023-06-05T08:23:23;24.80;97.00
5924;DHT22;2987;50.884;14.818;2023-06-05T08:25:49;24.80;93.50
5924;DHT22;2987;50.884;14.818;2023-06-05T08:28:16;24.90;97.20
5924;DHT22;2987;50.884;14.818;2023-06-05T08:30:42;25.30;96.20
5924;DHT22;2987;50.884;14.818;2023-06-05T08:33:10;25.40;95.00
5924;DHT22;2987;50.884;14.818;2023-06-05T08:35:39;25.70;95.00
5924;DHT22;2987;50.884;14.818;2023-06-05T08:38:05;26.10;92.80
5924;DHT22;2987;50.884;14.818;2023-06-05T08:40:32;26.30;92.00
5924;DHT22;2987;50.884;14.818;2023-06-05T08:43:00;26.30;90.00
5924;DHT22;2987;50.884;14.818;2023-06-05T08:45:27;26.00;89.40
5924;DHT22;2987;50.884;14.818;2023-06-05T08:47:54;25.90;90.70
5924;DHT22;2987;50.884;14.818;2023-06-05T08:50:22;25.80;91.00
5924;DHT22;2987;50.884;14.818;2023-06-05T08:52:50;26.00;90.70
5924;DHT22;2987;50.884;14.818;2023-06-05T08:55:16;25.90;88.00
5924;DHT22;2987;50.884;14.818;2023-06-05T08:57:47;26.00;90.40
5924;DHT22;2987;50.884;14.818;2023-06-05T09:00:14;26.30;90.60
5924;DHT22;2987;50.884;14.818;2023-06-05T09:02:41;26.30;91.60
5924;DHT22;2987;50.884;14.818;2023-06-05T09:05:14;26.60;91.10
5924;DHT22;2987;50.884;14.818;2023-06-05T09:07:41;26.70;90.00
5924;DHT22;2987;50.884;14.818;2023-06-05T09:12:57;27.10;88.50
5924;DHT22;2987;50.884;14.818;2023-06-05T09:15:27;26.60;87.10
5924;DHT22;2987;50.884;14.818;2023-06-05T09:18:12;26.70;90.60
5924;DHT22;2987;50.884;14.818;2023-06-05T09:20:40;26.90;91.10
5924;DHT22;2987;50.884;14.818;2023-06-05T09:23:25;27.20;88.90
5924;DHT22;2987;50.884;14.818;2023-06-05T09:25:56;27.50;88.10
5924;DHT22;2987;50.884;14.818;2023-06-05T09:28:23;27.10;88.90
5924;DHT22;2987;50.884;14.818;2023-06-05T09:31:04;27.40;86.10
5924;DHT22;2987;50.884;14.818;2023-06-05T09:33:32;27.50;85.30
5924;DHT22;2987;50.884;14.818;2023-06-05T09:36:15;27.60;85.00
5924;DHT22;2987;50.884;14.818;2023-06-05T09:38:41;26.90;86.40
5924;DHT22;2987;50.884;14.818;2023-06-05T09:41:09;26.70;85.20
5924;DHT22;2987;50.884;14.818;2023-06-05T09:43:37;26.60;88.30
5924;DHT22;2987;50.884;14.818;2023-06-05T09:46:09;26.70;86.20
5924;DHT22;2987;50.884;14.818;2023-06-05T09:48:36;27.00;85.10
5924;DHT22;2987;50.884;14.818;2023-06-05T09:51:12;27.00;87.80
5924;DHT22;2987;50.884;14.818;2023-06-05T09:53:45;27.30;89.20
5924;DHT22;2987;50.884;14.818;2023-06-05T09:56:13;27.50;82.00
5924;DHT22;2987;50.884;14.818;2023-06-05T09:58:56;27.60;85.30
5924;DHT22;2987;50.884;14.818;2023-06-05T10:01:24;27.80;80.00
5924;DHT22;2987;50.884;14.818;2023-06-05T10:06:21;27.70;83.00
5924;DHT22;2987;50.884;14.818;2023-06-05T10:08:50;28.00;81.20
5924;DHT22;2987;50.884;14.818;2023-06-05T10:11:19;28.00;78.70
5924;DHT22;2987;50.884;14.818;2023-06-05T10:13:47;28.10;79.20
5924;DHT22;2987;50.884;14.818;2023-06-05T10:16:16;28.40;75.30
5924;DHT22;2987;50.884;14.818;2023-06-05T10:18:46;28.60;74.80
5924;DHT22;2987;50.884;14.818;2023-06-05T10:21:15;28.40;78.90
5924;DHT22;2987;50.884;14.818;2023-06-05T10:23:47;28.50;70.00
5924;DHT22;2987;50.884;14.818;2023-06-05T10:26:30;28.50;71.10
5924;DHT22;2987;50.884;14.818;2023-06-05T10:29:12;28.70;71.90
5924;DHT22;2987;50.884;14.818;2023-06-05T10:31:48;28.70;75.40
5924;DHT22;2987;50.884;14.818;2023-06-05T10:34:35;28.90;74.20
5924;DHT22;2987;50.884;14.818;2023-06-05T10:37:10;28.70;72.30
5924;DHT22;2987;50.884;14.818;2023-06-05T10:39:40;28.80;67.50
5924;DHT22;2987;50.884;14.818;2023-06-05T10:42:06;28.80;67.70
5924;DHT22;2987;50.884;14.818;2023-06-05T10:44:41;28.70;69.30
5924;DHT22;2987;50.884;14.818;2023-06-05T10:52:49;27.60;68.50
5924;DHT22;2987;50.884;14.818;2023-06-05T10:55:15;27.60;66.10
5924;DHT22;2987;50.884;14.818;2023-06-05T11:00:27;27.00;72.80
5924;DHT22;2987;50.884;14.818;2023-06-05T11:02:54;26.80;70.40
5924;DHT22;2987;50.884;14.818;2023-06-05T11:05:20;26.60;69.40
5924;DHT22;2987;50.884;14.818;2023-06-05T11:07:47;26.30;70.00
5924;DHT22;2987;50.884;14.818;2023-06-05T11:10:17;26.10;74.80
5924;DHT22;2987;50.884;14.818;2023-06-05T11:12:55;25.90;70.70
5924;DHT22;2987;50.884;14.818;2023-06-05T11:15:35;25.90;70.00
5924;DHT22;2987;50.884;14.818;2023-06-05T11:18:30;25.80;72.50
5924;DHT22;2987;50.884;14.818;2023-06-05T11:20:56;25.70;71.30
5924;DHT22;2987;50.884;14.818;2023-06-05T11:25:53;25.60;72.60
5924;DHT22;2987;50.884;14.818;2023-06-05T11:28:42;25.90;73.40
5924;DHT22;2987;50.884;14.818;2023-06-05T11:33:35;25.60;74.50
5924;DHT22;2987;50.884;14.818;2023-06-05T11:36:04;25.60;74.80
5924;DHT22;2987;50.884;14.818;2023-06-05T11:38:30;25.70;75.60
5924;DHT22;2987;50.884;14.818;2023-06-05T11:40:56;25.70;76.70
5924;DHT22;2987;50.884;14.818;2023-06-05T11:43:22;25.70;78.00
5924;DHT22;2987;50.884;14.818;2023-06-05T11:45:50;25.80;77.30
5924;DHT22;2987;50.884;14.818;2023-06-05T11:50:58;25.60;79.70
5924;DHT22;2987;50.884;14.818;2023-06-05T11:53:26;25.60;77.50
5924;DHT22;2987;50.884;14.818;2023-06-05T11:55:53;25.60;73.40
5924;DHT22;2987;50.884;14.818;2023-06-05T11:58:21;25.40;75.70
5924;DHT22;2987;50.884;14.818;2023-06-05T12:00:48;25.30;77.00
5924;DHT22;2987;50.884;14.818;2023-06-05T12:03:19;25.40;79.60
5924;DHT22;2987;50.884;14.818;2023-06-05T12:05:48;25.50;74.50
5924;DHT22;2987;50.884;14.818;2023-06-05T12:08:31;25.30;77.50
5924;DHT22;2987;50.884;14.818;2023-06-05T12:11:00;25.10;76.50
5924;DHT22;2987;50.884;14.818;2023-06-05T12:13:48;25.00;76.50
5924;DHT22;2987;50.884;14.818;2023-06-05T12:18:40;24.70;77.80
5924;DHT22;2987;50.884;14.818;2023-06-05T12:21:06;24.60;78.20
5924;DHT22;2987;50.884;14.818;2023-06-05T12:23:32;24.60;78.80
5924;DHT22;2987;50.884;14.818;2023-06-05T12:26:01;24.70;78.70
5924;DHT22;2987;50.884;14.818;2023-06-05T12:28:28;24.80;79.80
5924;DHT22;2987;50.884;14.818;2023-06-05T12:30:54;24.80;80.10
5924;DHT22;2987;50.884;14.818;2023-06-05T12:33:20;24.90;78.00
5924;DHT22;2987;50.884;14.818;2023-06-05T12:35:47;24.80;77.40
5924;DHT22;2987;50.884;14.818;2023-06-05T12:38:14;24.70;73.90
5924;DHT22;2987;50.884;14.818;2023-06-05T12:40:40;24.80;76.60
5924;DHT22;2987;50.884;14.818;2023-06-05T12:43:21;24.70;76.70
5924;DHT22;2987;50.884;14.818;2023-06-05T12:45:47;24.80;75.20
5924;DHT22;2987;50.884;14.818;2023-06-05T12:48:14;25.00;75.70
5924;DHT22;2987;50.884;14.818;2023-06-05T12:50:40;24.90;76.90
5924;DHT22;2987;50.884;14.818;2023-06-05T12:53:08;25.00;76.60
5924;DHT22;2987;50.884;14.818;2023-06-05T12:55:34;25.00;76.30
5924;DHT22;2987;50.884;14.818;2023-06-05T12:58:00;24.90;74.90
5924;DHT22;2987;50.884;14.818;2023-06-05T13:00:27;24.90;73.30
5924;DHT22;2987;50.884;14.818;2023-06-05T13:02:53;25.00;78.20
5924;DHT22;2987;50.884;14.818;2023-06-05T13:05:19;25.10;74.90
5924;DHT22;2987;50.884;14.818;2023-06-05T13:07:45;25.00;72.90
5924;DHT22;2987;50.884;14.818;2023-06-05T13:10:11;25.00;76.90
5924;DHT22;2987;50.884;14.818;2023-06-05T13:12:37;25.00;75.60
5924;DHT22;2987;50.884;14.818;2023-06-05T13:15:04;25.00;82.30
5924;DHT22;2987;50.884;14.818;2023-06-05T13:17:32;25.10;80.30
5924;DHT22;2987;50.884;14.818;2023-06-05T13:20:01;25.20;75.70
5924;DHT22;2987;50.884;14.818;2023-06-05T13:22:32;25.30;78.60
5924;DHT22;2987;50.884;14.818;2023-06-05T13:24:58;25.30;79.40
5924;DHT22;2987;50.884;14.818;2023-06-05T13:27:24;25.50;75.90
5924;DHT22;2987;50.884;14.818;2023-06-05T13:29:50;25.60;75.50
5924;DHT22;2987;50.884;14.818;2023-06-05T13:32:16;25.60;75.80
5924;DHT22;2987;50.884;14.818;2023-06-05T13:34:42;25.70;74.20
5924;DHT22;2987;50.884;14.818;2023-06-05T13:37:08;25.60;75.80
5924;DHT22;2987;50.884;14.818;2023-06-05T13:39:34;25.60;79.10
5924;DHT22;2987;50.884;14.818;2023-06-05T13:42:00;25.60;76.50
5924;DHT22;2987;50.884;14.818;2023-06-05T13:44:29;25.10;73.30
5924;DHT22;2987;50.884;14.818;2023-06-05T13:46:56;25.00;76.50
5924;DHT22;2987;50.884;14.818;2023-06-05T13:49:22;24.80;78.00
5924;DHT22;2987;50.884;14.818;2023-06-05T13:51:48;24.70;78.50
5924;DHT22;2987;50.884;14.818;2023-06-05T13:54:13;24.80;77.90
5924;DHT22;2987;50.884;14.818;2023-06-05T13:56:40;24.70;76.00
5924;DHT22;2987;50.884;14.818;2023-06-05T14:01:32;24.50;78.50
5924;DHT22;2987;50.884;14.818;2023-06-05T14:03:58;24.70;78.80
5924;DHT22;2987;50.884;14.818;2023-06-05T14:06:23;24.60;83.60
5924;DHT22;2987;50.884;14.818;2023-06-05T14:08:49;24.60;80.10
5924;DHT22;2987;50.884;14.818;2023-06-05T14:11:15;24.70;78.60
5924;DHT22;2987;50.884;14.818;2023-06-05T14:13:41;24.70;82.90
5924;DHT22;2987;50.884;14.818;2023-06-05T14:16:09;24.60;81.00
5924;DHT22;2987;50.884;14.818;2023-06-05T14:18:38;24.70;79.20
5924;DHT22;2987;50.884;14.818;2023-06-05T14:21:05;24.60;78.90
5924;DHT22;2987;50.884;14.818;2023-06-05T14:23:31;24.50;78.30
5924;DHT22;2987;50.884;14.818;2023-06-05T14:25:57;24.40;79.70
5924;DHT22;2987;50.884;14.818;2023-06-05T14:28:23;24.30;79.70
5924;DHT22;2987;50.884;14.818;2023-06-05T14:30:49;24.20;76.90
5924;DHT22;2987;50.884;14.818;2023-06-05T14:33:15;24.20;81.40
5924;DHT22;2987;50.884;14.818;2023-06-05T14:35:44;24.10;80.40
5924;DHT22;2987;50.884;14.818;2023-06-05T14:38:10;24.10;81.10
5924;DHT22;2987;50.884;14.818;2023-06-05T14:40:38;23.90;79.80
5924;DHT22;2987;50.884;14.818;2023-06-05T14:43:05;23.70;77.80
5924;DHT22;2987;50.884;14.818;2023-06-05T14:45:32;23.70;81.40
5924;DHT22;2987;50.884;14.818;2023-06-05T14:47:58;23.70;80.50
5924;DHT22;2987;50.884;14.818;2023-06-05T14:50:24;23.80;81.90
5924;DHT22;2987;50.884;14.818;2023-06-05T14:52:50;23.80;81.60
5924;DHT22;2987;50.884;14.818;2023-06-05T14:55:16;23.80;87.60
5924;DHT22;2987;50.884;14.818;2023-06-05T14:57:42;23.80;86.80
5924;DHT22;2987;50.884;14.818;2023-06-05T15:00:08;23.80;83.40
5924;DHT22;2987;50.884;14.818;2023-06-05T15:02:35;23.50;84.90
5924;DHT22;2987;50.884;14.818;2023-06-05T15:05:01;23.40;88.60
5924;DHT22;2987;50.884;14.818;2023-06-05T15:07:37;23.30;88.80
5924;DHT22;2987;50.884;14.818;2023-06-05T15:10:05;23.20;89.10
5924;DHT22;2987;50.884;14.818;2023-06-05T15:12:31;23.10;89.10
5924;DHT22;2987;50.884;14.818;2023-06-05T15:14:57;22.80;89.40
5924;DHT22;2987;50.884;14.818;2023-06-05T15:17:23;22.70;90.50
5924;DHT22;2987;50.884;14.818;2023-06-05T15:19:49;22.60;90.30
5924;DHT22;2987;50.884;14.818;2023-06-05T15:22:15;22.60;90.50
5924;DHT22;2987;50.884;14.818;2023-06-05T15:24:41;22.50;91.20
5924;DHT22;2987;50.884;14.818;2023-06-05T15:27:07;22.30;91.50
5924;DHT22;2987;50.884;14.818;2023-06-05T15:29:34;22.30;92.30
5924;DHT22;2987;50.884;14.818;2023-06-05T15:32:00;22.30;92.80
5924;DHT22;2987;50.884;14.818;2023-06-05T15:34:26;22.30;93.50
5924;DHT22;2987;50.884;14.818;2023-06-05T15:36:52;22.30;94.10
5924;DHT22;2987;50.884;14.818;2023-06-05T15:39:18;22.30;94.60
5924;DHT22;2987;50.884;14.818;2023-06-05T15:41:44;22.30;94.90
5924;DHT22;2987;50.884;14.818;2023-06-05T15:44:13;22.20;94.50
5924;DHT22;2987;50.884;14.818;2023-06-05T15:46:39;22.20;94.80
5924;DHT22;2987;50.884;14.818;2023-06-05T15:49:05;22.10;96.50
5924;DHT22;2987;50.884;14.818;2023-06-05T15:51:31;22.00;96.00
5924;DHT22;2987;50.884;14.818;2023-06-05T15:53:58;22.00;96.90
5924;DHT22;2987;50.884;14.818;2023-06-05T15:56:24;21.90;97.60
5924;DHT22;2987;50.884;14.818;2023-06-05T15:58:54;21.90;97.20
5924;DHT22;2987;50.884;14.818;2023-06-05T16:01:20;21.90;98.10
5924;DHT22;2987;50.884;14.818;2023-06-05T16:03:46;21.90;97.80
5924;DHT22;2987;50.884;14.818;2023-06-05T16:06:12;21.90;97.50
5924;DHT22;2987;50.884;14.818;2023-06-05T16:08:40;21.90;97.80
5924;DHT22;2987;50.884;14.818;2023-06-05T16:11:07;21.80;97.80
5924;DHT22;2987;50.884;14.818;2023-06-05T16:13:37;21.60;95.80
5924;DHT22;2987;50.884;14.818;2023-06-05T16:16:03;21.40;97.10
5924;DHT22;2987;50.884;14.818;2023-06-05T16:18:29;21.30;96.80
5924;DHT22;2987;50.884;14.818;2023-06-05T16:20:55;21.20;97.00
5924;DHT22;2987;50.884;14.818;2023-06-05T16:23:21;21.10;97.00
5924;DHT22;2987;50.884;14.818;2023-06-05T16:25:48;21.00;97.30